Time;durP1;ratioP1;P1;durP2;ratioP2;P2;SDS_P1;SDS_P2;PMS_P1;PMS_P2;Temp;Humidity;BMP_temperature;BMP_pressure;BME280_temperature;BME280_humidity;BME280_pressure;Samples;Min_cycle;Max_cycle;Signal;HPM_P1;HPM_P2
2024/01/04 00:01:16;;;;;;;2.95;0.98;;;6.80;99.90;;;;;;5089396;28;20059;-68
2024/01/04 00:03:44;;;;;;;2.05;1.10;;;6.80;99.90;;;;;;5086411;28;20507;-65
2024/01/04 00:06:12;;;;;;;3.42;1.67;;;6.80;99.90;;;;;;5089979;28;20515;-64
2024/01/04 00:08:39;;;;;;;4.28;1.40;;;6.80;99.90;;;;;;5087950;28;20059;-64
2024/01/04 00:11:08;;;;;;;1.90;0.98;;;6.80;99.90;;;;;;5083796;28;20047;-64
2024/01/04 00:13:35;;;;;;;2.40;1.02;;;6.70;99.90;;;;;;5084251;28;20051;-67
2024/01/04 00:16:07;;;;;;;2.03;1.00;;;6.70;99.90;;;;;;5089273;28;20040;-67
2024/01/04 00:18:35;;;;;;;1.02;0.80;;;6.70;99.90;;;;;;5088675;28;20044;-64
2024/01/04 00:21:03;;;;;;;1.33;0.95;;;6.70;99.90;;;;;;5089506;28;20400;-65
2024/01/04 00:23:31;;;;;;;2.35;0.90;;;6.70;99.90;;;;;;5087918;28;20050;-73
2024/01/04 00:26:00;;;;;;;2.03;0.90;;;6.70;99.90;;;;;;5087758;28;20048;-65
2024/01/04 00:28:28;;;;;;;1.60;0.75;;;6.70;99.90;;;;;;5088916;28;20044;-67
2024/01/04 00:30:55;;;;;;;1.65;1.05;;;6.70;99.90;;;;;;5087928;28;20043;-66
2024/01/04 00:33:23;;;;;;;1.10;0.77;;;6.70;99.90;;;;;;5091206;28;20048;-65
2024/01/04 00:35:51;;;;;;;1.58;0.88;;;6.70;99.90;;;;;;5108551;28;20047;-65
2024/01/04 00:38:19;;;;;;;2.28;1.00;;;6.70;99.90;;;;;;5102126;28;20048;-65
2024/01/04 00:40:47;;;;;;;0.90;0.90;;;6.70;99.90;;;;;;5085478;28;20040;-66
2024/01/04 00:43:14;;;;;;;1.75;0.90;;;6.70;99.90;;;;;;5075811;28;20059;-65
2024/01/04 00:45:42;;;;;;;3.88;1.15;;;6.70;99.90;;;;;;5109290;28;20054;-68
2024/01/04 00:48:09;;;;;;;2.35;1.10;;;6.70;99.90;;;;;;5094523;28;20044;-67
2024/01/04 00:50:37;;;;;;;1.30;1.00;;;6.70;99.90;;;;;;5088703;28;20055;-64
2024/01/04 00:53:05;;;;;;;3.20;1.20;;;6.70;99.90;;;;;;5087416;28;20036;-70
2024/01/04 00:55:37;;;;;;;1.67;1.00;;;6.70;99.90;;;;;;5070216;28;20048;-65
2024/01/04 00:58:05;;;;;;;1.70;0.93;;;6.70;99.90;;;;;;5074082;28;20055;-65
2024/01/04 01:00:33;;;;;;;1.80;0.90;;;6.70;99.90;;;;;;5088717;28;20490;-64
2024/01/04 01:03:01;;;;;;;2.72;0.73;;;6.70;99.90;;;;;;5084841;28;20052;-67
2024/01/04 01:05:29;;;;;;;1.67;0.93;;;6.70;99.90;;;;;;5084923;28;20036;-66
2024/01/04 01:07:57;;;;;;;1.08;0.50;;;6.70;99.90;;;;;;5085601;28;20399;-64
2024/01/04 01:10:26;;;;;;;0.93;0.57;;;6.70;99.90;;;;;;5087194;28;20048;-65
2024/01/04 01:12:54;;;;;;;1.97;0.67;;;6.70;99.90;;;;;;5040375;28;20051;-66
2024/01/04 01:15:21;;;;;;;1.85;0.50;;;6.70;99.90;;;;;;5105347;28;20300;-64
2024/01/04 01:17:50;;;;;;;3.10;0.95;;;6.70;99.90;;;;;;5105197;28;20399;-65
2024/01/04 01:20:18;;;;;;;0.40;0.40;;;6.70;99.90;;;;;;5081393;28;20044;-65
2024/01/04 01:22:45;;;;;;;2.83;0.65;;;6.70;99.90;;;;;;5068734;28;20052;-64
2024/01/04 01:25:13;;;;;;;1.65;0.60;;;6.70;99.90;;;;;;5088384;28;20051;-64
2024/01/04 01:27:40;;;;;;;2.00;0.63;;;6.70;99.90;;;;;;5084176;28;20043;-65
2024/01/04 01:30:09;;;;;;;4.40;0.90;;;6.70;99.90;;;;;;5088417;28;20074;-65
2024/01/04 01:32:37;;;;;;;1.67;0.70;;;6.80;99.90;;;;;;5088850;28;20040;-65
2024/01/04 01:35:06;;;;;;;3.58;0.80;;;6.80;99.90;;;;;;5087603;28;20051;-65
2024/01/04 01:37:34;;;;;;;1.52;0.70;;;6.80;99.90;;;;;;5087452;28;20040;-65
2024/01/04 01:40:02;;;;;;;0.88;0.60;;;6.80;99.90;;;;;;5085685;28;20056;-68
2024/01/04 01:42:30;;;;;;;3.70;1.73;;;6.80;99.90;;;;;;5075547;28;20545;-65
2024/01/04 01:45:00;;;;;;;4.32;1.20;;;6.80;99.90;;;;;;5082689;28;20055;-65
2024/01/04 01:47:28;;;;;;;2.53;0.85;;;6.90;99.90;;;;;;5088298;28;20040;-65
2024/01/04 01:49:56;;;;;;;3.42;1.08;;;6.80;99.90;;;;;;5077686;28;20055;-64
2024/01/04 01:52:24;;;;;;;3.85;0.98;;;6.80;99.90;;;;;;5087786;28;20059;-66
2024/01/04 01:54:52;;;;;;;5.32;1.10;;;6.80;99.90;;;;;;5065606;28;20074;-64
2024/01/04 01:57:20;;;;;;;2.03;0.95;;;6.80;99.90;;;;;;5067426;28;20056;-64
2024/01/04 01:59:48;;;;;;;3.72;1.20;;;6.90;99.90;;;;;;5070108;28;20040;-64
2024/01/04 02:02:16;;;;;;;6.20;1.58;;;6.90;99.90;;;;;;5086361;28;20048;-65
2024/01/04 02:04:46;;;;;;;7.93;1.65;;;6.90;99.90;;;;;;5082480;28;20368;-65
2024/01/04 02:07:13;;;;;;;1.45;1.33;;;6.90;99.90;;;;;;5067740;28;20518;-65
2024/01/04 02:09:41;;;;;;;3.30;1.48;;;6.90;99.90;;;;;;5084483;28;20044;-65
2024/01/04 02:12:14;;;;;;;5.00;1.58;;;6.90;99.90;;;;;;5082442;28;20056;-70
2024/01/04 02:14:42;;;;;;;3.05;1.10;;;7.00;99.90;;;;;;5084202;28;20040;-66
2024/01/04 02:17:10;;;;;;;4.25;1.38;;;7.00;99.90;;;;;;5086376;28;20052;-66
2024/01/04 02:19:39;;;;;;;8.48;1.67;;;7.00;99.90;;;;;;5069529;28;20071;-65
2024/01/04 02:22:07;;;;;;;5.43;1.65;;;7.00;99.90;;;;;;5087176;28;20048;-64
2024/01/04 02:24:34;;;;;;;9.32;2.03;;;7.00;99.90;;;;;;5086387;28;20047;-64
2024/01/04 02:27:02;;;;;;;3.42;1.95;;;7.00;99.90;;;;;;5083420;28;20044;-65
2024/01/04 02:29:29;;;;;;;4.45;1.65;;;7.00;99.90;;;;;;5086489;28;20047;-67
2024/01/04 02:31:57;;;;;;;5.47;1.88;;;7.00;99.90;;;;;;5077176;28;20411;-67
2024/01/04 02:34:25;;;;;;;9.32;1.65;;;7.00;99.90;;;;;;5108128;28;20036;-65
2024/01/04 02:36:53;;;;;;;3.47;2.00;;;6.90;99.90;;;;;;5113242;28;20506;-65
2024/01/04 02:39:21;;;;;;;9.35;2.00;;;6.90;99.90;;;;;;5098711;28;20399;-65
2024/01/04 02:41:49;;;;;;;6.78;1.60;;;6.90;99.90;;;;;;5091074;28;20074;-65
2024/01/04 02:44:16;;;;;;;8.07;1.98;;;6.90;99.90;;;;;;5074387;28;20055;-65
2024/01/04 02:46:44;;;;;;;9.82;1.88;;;6.90;99.90;;;;;;5073993;28;20040;-65
2024/01/04 02:49:12;;;;;;;5.28;1.80;;;6.90;99.90;;;;;;5094005;28;20044;-64
2024/01/04 02:51:40;;;;;;;4.22;2.00;;;6.90;99.90;;;;;;5075890;28;20056;-66
2024/01/04 02:54:08;;;;;;;3.45;1.60;;;6.90;99.90;;;;;;5094437;28;20036;-64
2024/01/04 02:56:36;;;;;;;4.70;1.70;;;6.90;99.90;;;;;;5094099;28;20380;-66
2024/01/04 02:59:04;;;;;;;2.85;1.48;;;6.90;99.90;;;;;;5092367;28;20040;-68
2024/01/04 03:01:31;;;;;;;6.18;1.75;;;6.80;99.90;;;;;;5094280;28;20043;-67
2024/01/04 03:03:59;;;;;;;3.22;1.95;;;6.80;99.90;;;;;;5107330;28;20047;-65
2024/01/04 03:06:29;;;;;;;2.92;1.27;;;6.80;99.90;;;;;;5113103;28;20059;-66
2024/01/04 03:08:57;;;;;;;5.60;1.38;;;6.80;99.90;;;;;;5097374;28;20071;-65
2024/01/04 03:11:25;;;;;;;7.72;1.70;;;6.80;99.90;;;;;;5089788;28;20510;-68
2024/01/04 03:13:52;;;;;;;4.38;1.38;;;6.80;99.90;;;;;;5090925;28;20059;-65
2024/01/04 03:16:23;;;;;;;5.55;1.63;;;6.70;99.90;;;;;;5091952;28;20051;-71
2024/01/04 03:18:50;;;;;;;5.82;1.80;;;6.70;99.90;;;;;;5092509;28;20060;-69
2024/01/04 03:21:18;;;;;;;8.52;1.40;;;6.70;99.90;;;;;;5093798;28;20043;-64
2024/01/04 03:23:46;;;;;;;9.27;2.05;;;6.60;99.90;;;;;;5093854;28;20387;-64
2024/01/04 03:26:14;;;;;;;7.20;1.48;;;6.50;99.90;;;;;;5093740;28;20055;-68
2024/01/04 03:28:41;;;;;;;6.35;1.38;;;6.50;99.90;;;;;;5093563;28;20047;-64
2024/01/04 03:31:09;;;;;;;5.47;1.17;;;6.40;99.90;;;;;;5093556;28;20059;-67
2024/01/04 03:33:36;;;;;;;1.77;1.05;;;6.30;99.90;;;;;;5103544;28;20063;-66
2024/01/04 03:36:07;;;;;;;5.35;1.20;;;6.30;99.90;;;;;;5099700;28;20044;-67
2024/01/04 03:38:35;;;;;;;4.90;1.30;;;6.20;99.90;;;;;;5090604;28;20040;-65
2024/01/04 03:41:03;;;;;;;3.53;1.45;;;6.20;99.90;;;;;;5091421;28;20036;-68
2024/01/04 03:43:31;;;;;;;5.72;1.83;;;6.20;99.90;;;;;;5093437;28;20048;-72
2024/01/04 03:45:59;;;;;;;2.05;1.08;;;6.20;99.90;;;;;;5093387;28;20391;-64
2024/01/04 03:48:26;;;;;;;7.22;1.35;;;6.10;99.90;;;;;;5092777;28;20056;-65
2024/01/04 03:50:54;;;;;;;9.40;2.00;;;6.10;99.90;;;;;;5093387;28;20040;-65
2024/01/04 03:53:22;;;;;;;7.57;1.38;;;6.10;99.90;;;;;;5075409;28;20487;-65
2024/01/04 03:55:49;;;;;;;9.23;1.65;;;6.00;99.90;;;;;;5092123;28;20055;-65
2024/01/04 03:58:17;;;;;;;8.07;1.10;;;6.10;99.90;;;;;;5092538;28;20495;-64
2024/01/04 04:00:45;;;;;;;8.15;1.23;;;6.10;99.90;;;;;;5089449;28;20048;-66
2024/01/04 04:03:18;;;;;;;8.52;1.40;;;6.00;99.90;;;;;;5098994;28;20502;-64
2024/01/04 04:05:46;;;;;;;7.07;1.35;;;6.00;99.90;;;;;;5080912;28;20395;-66
2024/01/04 04:08:14;;;;;;;4.18;1.00;;;6.00;99.90;;;;;;5088499;28;20407;-65
2024/01/04 04:10:42;;;;;;;12.35;2.47;;;6.00;99.90;;;;;;5071284;28;20052;-64
2024/01/04 04:13:10;;;;;;;15.65;1.50;;;5.90;99.90;;;;;;5071034;28;20049;-65
2024/01/04 04:15:37;;;;;;;10.70;1.65;;;5.90;99.90;;;;;;5071324;28;20045;-64
2024/01/04 04:18:05;;;;;;;8.23;1.45;;;5.80;99.90;;;;;;5084192;28;20510;-66
2024/01/04 04:20:33;;;;;;;12.50;1.80;;;5.80;99.90;;;;;;5092701;28;20044;-64
2024/01/04 04:23:01;;;;;;;5.78;1.48;;;5.80;99.90;;;;;;5092725;28;20476;-64
2024/01/04 04:25:28;;;;;;;8.30;1.20;;;5.70;99.90;;;;;;5092666;28;20060;-69
2024/01/04 04:27:56;;;;;;;6.47;1.27;;;5.70;99.90;;;;;;5092989;28;20391;-65
2024/01/04 04:30:24;;;;;;;9.50;1.27;;;5.70;99.90;;;;;;5091334;28;20036;-64
2024/01/04 04:32:51;;;;;;;6.55;1.48;;;5.70;99.90;;;;;;5095375;28;20048;-64
2024/01/04 04:35:19;;;;;;;9.77;2.78;;;5.70;99.90;;;;;;5111621;28;20051;-66
2024/01/04 04:37:46;;;;;;;10.82;1.88;;;5.70;99.90;;;;;;5103389;28;20371;-65
2024/01/04 04:40:14;;;;;;;6.93;0.88;;;5.70;99.90;;;;;;5092200;28;20482;-65
2024/01/04 04:42:42;;;;;;;11.05;1.50;;;5.60;99.90;;;;;;5092219;28;20048;-64
2024/01/04 04:45:10;;;;;;;4.63;0.93;;;5.70;99.90;;;;;;5092148;28;20052;-64
2024/01/04 04:47:38;;;;;;;6.45;1.27;;;5.70;99.90;;;;;;5091494;28;20403;-65
2024/01/04 04:50:06;;;;;;;7.97;1.08;;;5.80;99.90;;;;;;5091375;28;20059;-65
2024/01/04 04:52:34;;;;;;;10.95;1.38;;;5.80;99.90;;;;;;5090009;28;20052;-66
2024/01/04 04:55:02;;;;;;;13.20;1.63;;;5.80;99.90;;;;;;5092306;28;20047;-63
2024/01/04 04:57:31;;;;;;;10.90;1.63;;;5.70;99.90;;;;;;5091939;28;20044;-63
2024/01/04 04:59:58;;;;;;;15.65;1.35;;;5.70;99.90;;;;;;5091958;28;20138;-64
2024/01/04 05:02:26;;;;;;;6.63;1.40;;;5.60;99.90;;;;;;5091950;28;20044;-64
2024/01/04 05:04:53;;;;;;;12.88;1.65;;;5.60;99.90;;;;;;5112424;28;20055;-63
2024/01/04 05:07:21;;;;;;;6.88;1.58;;;5.50;99.90;;;;;;5107012;28;20425;-63
2024/01/04 05:09:48;;;;;;;8.82;1.50;;;5.50;99.90;;;;;;5091689;28;20044;-63
2024/01/04 05:12:16;;;;;;;9.63;1.50;;;5.50;99.90;;;;;;5091096;28;20048;-63
2024/01/04 05:14:44;;;;;;;9.82;1.65;;;5.40;99.90;;;;;;5091316;28;20044;-64
2024/01/04 05:17:11;;;;;;;14.35;1.55;;;5.40;99.90;;;;;;5091741;28;20048;-63
2024/01/04 05:19:43;;;;;;;7.65;1.30;;;5.40;99.90;;;;;;5077770;28;20048;-63
2024/01/04 05:22:10;;;;;;;10.40;1.63;;;5.40;99.90;;;;;;5071677;28;20040;-64
2024/01/04 05:24:38;;;;;;;12.50;2.25;;;5.50;99.90;;;;;;5075390;28;20051;-63
2024/01/04 05:27:05;;;;;;;9.35;2.50;;;5.50;99.90;;;;;;5091687;28;20601;-64
2024/01/04 05:29:33;;;;;;;4.82;1.25;;;5.50;99.90;;;;;;5091805;28;20040;-63
2024/01/04 05:32:02;;;;;;;9.73;1.58;;;5.50;99.90;;;;;;5088515;28;20055;-65
2024/01/04 05:34:32;;;;;;;45.30;2.95;;;5.50;99.90;;;;;;5108848;28;20375;-64
2024/01/04 05:37:00;;;;;;;;;;;5.40;99.90;;;;;;5107191;28;20040;-63
2024/01/04 05:39:27;;;;;;;7.30;1.17;;;5.40;99.90;;;;;;5071869;28;19921;-64
2024/01/04 05:41:55;;;;;;;9.70;1.77;;;5.30;99.90;;;;;;5082930;28;20051;-64
2024/01/04 05:44:23;;;;;;;11.98;1.65;;;5.30;99.90;;;;;;5091505;28;20040;-63
2024/01/04 05:46:51;;;;;;;10.07;1.73;;;5.30;99.90;;;;;;5089887;28;20047;-67
2024/01/04 05:49:18;;;;;;;11.77;1.52;;;5.30;99.90;;;;;;5066875;28;20055;-62
2024/01/04 05:51:46;;;;;;;12.52;1.70;;;5.20;99.90;;;;;;5067700;28;20049;-63
2024/01/04 05:54:14;;;;;;;15.45;2.22;;;5.20;99.90;;;;;;5066853;28;20365;-64
2024/01/04 05:56:44;;;;;;;18.38;1.73;;;5.20;99.90;;;;;;5066659;28;20048;-63
2024/01/04 05:59:12;;;;;;;13.80;2.40;;;5.20;99.90;;;;;;5090120;28;20044;-63
2024/01/04 06:01:39;;;;;;;6.53;1.40;;;5.10;99.90;;;;;;5085808;28;20064;-64
2024/01/04 06:04:07;;;;;;;10.38;1.50;;;5.10;99.90;;;;;;5084943;28;20048;-63
2024/01/04 06:06:35;;;;;;;12.18;2.30;;;5.10;99.90;;;;;;5087533;28;20048;-63
2024/01/04 06:09:03;;;;;;;14.48;1.95;;;5.00;99.90;;;;;;5090901;28;20052;-63
2024/01/04 06:11:31;;;;;;;9.10;1.60;;;5.00;99.90;;;;;;5091718;28;20041;-62
2024/01/04 06:13:59;;;;;;;11.60;2.28;;;5.10;99.90;;;;;;5089977;28;20090;-63
2024/01/04 06:16:27;;;;;;;12.50;1.92;;;5.10;99.90;;;;;;5088985;28;20058;-64
2024/01/04 06:18:55;;;;;;;8.57;1.67;;;5.10;99.90;;;;;;5072478;28;20048;-64
2024/01/04 06:21:23;;;;;;;10.05;1.65;;;5.10;99.90;;;;;;5067687;28;20045;-63
2024/01/04 06:23:51;;;;;;;11.43;2.10;;;5.10;99.90;;;;;;5089388;28;20062;-63
2024/01/04 06:26:23;;;;;;;14.50;2.53;;;5.10;99.90;;;;;;5091422;28;20036;-64
2024/01/04 06:28:51;;;;;;;15.93;1.98;;;5.20;99.90;;;;;;5091462;28;20055;-64
2024/01/04 06:31:19;;;;;;;17.33;2.22;;;5.30;99.90;;;;;;5091751;28;20044;-67
2024/01/04 06:33:46;;;;;;;13.07;2.47;;;5.40;99.90;;;;;;5091662;28;20059;-64
2024/01/04 06:36:14;;;;;;;17.52;2.00;;;5.50;99.90;;;;;;5090882;28;20063;-64
2024/01/04 06:38:42;;;;;;;27.48;2.50;;;5.60;99.90;;;;;;5090909;28;20048;-68
2024/01/04 06:41:10;;;;;;;14.30;1.67;;;5.70;99.90;;;;;;5091288;28;20036;-65
2024/01/04 06:43:38;;;;;;;18.38;2.15;;;5.70;99.90;;;;;;5090810;28;20059;-66
2024/01/04 06:46:06;;;;;;;14.45;1.70;;;5.80;99.90;;;;;;5090222;28;20490;-64
2024/01/04 06:48:35;;;;;;;17.33;2.30;;;5.90;99.90;;;;;;5080414;28;20047;-64
2024/01/04 06:51:03;;;;;;;15.05;2.17;;;5.90;99.90;;;;;;5073109;28;20048;-72
2024/01/04 06:53:31;;;;;;;13.15;2.08;;;6.00;99.90;;;;;;5067706;28;20051;-64
2024/01/04 06:55:59;;;;;;;13.18;1.60;;;6.00;99.90;;;;;;5088631;28;20052;-68
2024/01/04 06:58:27;;;;;;;24.75;2.75;;;6.00;99.90;;;;;;5087427;28;20048;-63
2024/01/04 07:00:56;;;;;;;15.82;3.10;;;6.00;99.90;;;;;;5087778;28;20048;-66
2024/01/04 07:03:25;;;;;;;16.88;1.55;;;6.00;99.90;;;;;;5081866;28;20067;-65
2024/01/04 07:05:53;;;;;;;20.42;3.17;;;6.10;99.90;;;;;;5088182;28;20491;-71
2024/01/04 07:08:22;;;;;;;19.08;2.20;;;6.10;99.90;;;;;;5100643;28;20047;-65
2024/01/04 07:10:50;;;;;;;12.53;1.67;;;6.10;99.90;;;;;;5090452;28;20048;-65
2024/01/04 07:13:18;;;;;;;17.40;2.78;;;6.10;99.90;;;;;;5080216;28;20768;-66
2024/01/04 07:15:45;;;;;;;20.58;1.83;;;6.10;99.90;;;;;;5085668;28;20056;-65
2024/01/04 07:18:13;;;;;;;11.02;1.70;;;6.10;99.90;;;;;;5086807;28;20040;-65
2024/01/04 07:20:41;;;;;;;21.50;2.67;;;6.00;99.90;;;;;;5073463;28;20387;-65
2024/01/04 07:23:09;;;;;;;18.83;1.90;;;6.00;99.90;;;;;;5086601;28;20052;-66
2024/01/04 07:25:36;;;;;;;14.00;1.83;;;6.00;99.90;;;;;;5086416;28;20067;-67
2024/01/04 07:28:04;;;;;;;19.83;4.55;;;5.90;99.90;;;;;;5087302;28;20072;-68
2024/01/04 07:30:32;;;;;;;14.80;3.72;;;5.80;99.90;;;;;;5087503;28;20048;-62
2024/01/04 07:33:00;;;;;;;15.35;2.03;;;5.80;99.90;;;;;;5079993;28;20047;-62
2024/01/04 07:35:32;;;;;;;17.92;2.25;;;5.80;99.90;;;;;;5086292;28;20056;-63
2024/01/04 07:37:59;;;;;;;15.07;1.73;;;5.70;99.90;;;;;;5089934;28;20047;-65
2024/01/04 07:40:27;;;;;;;25.42;3.17;;;5.60;99.90;;;;;;5090469;28;20056;-63
2024/01/04 07:42:54;;;;;;;11.13;1.42;;;5.60;99.90;;;;;;5089754;28;20051;-64
2024/01/04 07:45:22;;;;;;;20.38;2.35;;;5.50;99.90;;;;;;5090428;28;20049;-64
2024/01/04 07:47:50;;;;;;;15.82;1.73;;;5.40;99.90;;;;;;5084668;28;20037;-71
2024/01/04 07:50:17;;;;;;;13.93;2.20;;;5.40;99.90;;;;;;5066775;28;20044;-63
2024/01/04 07:52:45;;;;;;;11.02;1.55;;;5.30;99.90;;;;;;5075521;28;20067;-64
2024/01/04 07:55:13;;;;;;;20.90;2.95;;;5.30;99.90;;;;;;5087078;28;20040;-67
2024/01/04 07:57:41;;;;;;;18.08;1.65;;;5.20;99.90;;;;;;5084807;28;20385;-65
2024/01/04 08:00:09;;;;;;;20.95;2.15;;;5.20;99.90;;;;;;5089124;28;20365;-70
2024/01/04 08:02:39;;;;;;;11.52;1.80;;;5.20;99.90;;;;;;5089274;28;20044;-71
2024/01/04 08:05:09;;;;;;;21.75;2.00;;;5.10;99.90;;;;;;5083054;28;20049;-64
2024/01/04 08:07:37;;;;;;;15.02;1.60;;;5.10;99.90;;;;;;5071795;28;20040;-65
2024/01/04 08:10:06;;;;;;;24.88;2.97;;;5.00;99.90;;;;;;5089675;28;20044;-64
2024/01/04 08:12:33;;;;;;;15.45;2.20;;;5.00;99.90;;;;;;5094295;28;20055;-64
2024/01/04 08:15:01;;;;;;;10.20;2.17;;;5.00;99.90;;;;;;5090172;28;20438;-64
2024/01/04 08:17:29;;;;;;;25.88;2.85;;;4.90;99.90;;;;;;5088654;28;20503;-65
2024/01/04 08:19:57;;;;;;;21.65;3.08;;;4.90;99.90;;;;;;5084205;28;20388;-68
2024/01/04 08:22:25;;;;;;;19.58;1.88;;;4.80;99.90;;;;;;5080270;28;20453;-65
2024/01/04 08:24:53;;;;;;;25.15;3.50;;;4.80;99.90;;;;;;5095591;28;20044;-70
2024/01/04 08:27:21;;;;;;;19.15;4.15;;;4.70;99.90;;;;;;5088720;28;20044;-76
2024/01/04 08:29:49;;;;;;;17.48;2.30;;;4.70;99.90;;;;;;5087900;28;20048;-75
2024/01/04 08:32:18;;;;;;;8.80;1.58;;;4.60;99.90;;;;;;5088843;28;20044;-71
2024/01/04 08:34:45;;;;;;;13.40;2.13;;;4.60;99.90;;;;;;5081795;28;20067;-65
2024/01/04 08:37:14;;;;;;;16.42;2.15;;;4.60;99.90;;;;;;5070875;28;20048;-65
2024/01/04 08:39:42;;;;;;;20.73;2.43;;;4.50;99.90;;;;;;5103735;28;20051;-67
2024/01/04 08:42:10;;;;;;;20.98;2.63;;;4.50;99.90;;;;;;5072201;28;20048;-65
2024/01/04 08:44:38;;;;;;;19.33;2.03;;;4.40;99.90;;;;;;5088859;28;20399;-65
2024/01/04 08:47:05;;;;;;;20.00;2.92;;;4.40;99.90;;;;;;5087865;28;20040;-66
2024/01/04 08:49:33;;;;;;;15.68;2.35;;;4.30;99.90;;;;;;5068533;28;20044;-65
2024/01/04 08:52:01;;;;;;;18.95;2.28;;;4.30;99.90;;;;;;5084771;28;20048;-66
2024/01/04 08:54:29;;;;;;;24.63;2.58;;;4.30;99.90;;;;;;5087482;28;20048;-68
2024/01/04 08:56:56;;;;;;;21.45;2.70;;;4.20;99.90;;;;;;5087104;28;20043;-66
2024/01/04 08:59:24;;;;;;;21.80;2.67;;;4.20;99.90;;;;;;5088517;28;20051;-70
2024/01/04 09:01:52;;;;;;;15.13;2.22;;;4.20;99.90;;;;;;5089244;28;20044;-71
2024/01/04 09:04:20;;;;;;;18.20;2.45;;;4.10;99.90;;;;;;5088341;28;20055;-66
2024/01/04 09:06:48;;;;;;;20.05;3.38;;;4.10;99.90;;;;;;5068794;28;20044;-67
2024/01/04 09:09:15;;;;;;;21.70;2.67;;;4.10;99.90;;;;;;5085071;28;20518;-69
2024/01/04 09:11:48;;;;;;;24.42;2.90;;;4.10;99.90;;;;;;5086946;28;20770;-70
2024/01/04 09:14:16;;;;;;;18.27;3.35;;;4.10;99.90;;;;;;5104584;28;20047;-63
2024/01/04 09:16:44;;;;;;;15.40;3.90;;;4.10;99.90;;;;;;5088111;28;20044;-65
2024/01/04 09:19:16;;;;;;;21.33;2.78;;;4.10;99.90;;;;;;5082286;28;20052;-67
2024/01/04 09:21:49;;;;;;;25.92;4.18;;;4.20;99.90;;;;;;5068213;28;20067;-64
2024/01/04 09:24:18;;;;;;;24.95;4.18;;;4.20;99.90;;;;;;5066833;28;20535;-65
2024/01/04 09:26:46;;;;;;;20.00;4.25;;;4.30;99.90;;;;;;5067031;28;20063;-66
2024/01/04 09:29:18;;;;;;;13.93;3.45;;;4.30;99.90;;;;;;5086318;28;20498;-64
2024/01/04 09:31:46;;;;;;;21.20;4.18;;;4.40;99.90;;;;;;5087708;28;20048;-63
2024/01/04 09:34:13;;;;;;;22.50;3.88;;;4.40;99.90;;;;;;5097293;28;20040;-63
2024/01/04 09:36:41;;;;;;;30.65;4.75;;;4.50;99.90;;;;;;5066409;28;20392;-66
2024/01/04 09:39:13;;;;;;;35.38;5.03;;;4.60;99.90;;;;;;5086725;28;20048;-68
2024/01/04 09:41:44;;;;;;;17.23;3.00;;;4.70;99.90;;;;;;5087231;28;20400;-63
2024/01/04 09:44:13;;;;;;;15.88;2.47;;;4.70;99.90;;;;;;5087618;28;20207;-65
2024/01/04 09:46:42;;;;;;;21.13;2.67;;;4.80;99.90;;;;;;5088283;28;20052;-63
2024/01/04 09:49:11;;;;;;;22.25;2.72;;;4.90;99.90;;;;;;5097163;28;20048;-64
2024/01/04 09:51:41;;;;;;;19.98;2.35;;;5.00;99.90;;;;;;5078439;28;20055;-63
2024/01/04 09:54:11;;;;;;;17.67;2.22;;;5.10;99.90;;;;;;5087835;28;20048;-63
2024/01/04 09:56:42;;;;;;;;;;;5.20;99.90;;;;;;5087321;28;20055;-63
2024/01/04 09:59:10;;;;;;;12.98;1.60;;;5.30;99.90;;;;;;5087692;28;19943;-63
2024/01/04 10:01:39;;;;;;;18.17;2.03;;;5.30;99.90;;;;;;5086629;28;20055;-66
2024/01/04 10:04:14;;;;;;;16.05;2.08;;;5.40;99.90;;;;;;5090211;28;20289;-64
2024/01/04 10:06:44;;;;;;;16.10;2.35;;;5.40;99.90;;;;;;5066865;28;20052;-63
2024/01/04 10:09:19;;;;;;;20.17;1.73;;;5.40;99.90;;;;;;5066129;28;20052;-62
2024/01/04 10:11:56;;;;;;;12.05;2.53;;;5.50;99.90;;;;;;5069454;28;20048;-63
2024/01/04 10:14:28;;;;;;;16.35;1.98;;;5.50;99.90;;;;;;5066587;28;20056;-63
2024/01/04 10:16:56;;;;;;;22.52;2.47;;;5.50;99.90;;;;;;5067862;28;20044;-64
2024/01/04 10:19:25;;;;;;;16.33;2.10;;;5.50;99.90;;;;;;5080289;28;20045;-64
2024/01/04 10:21:53;;;;;;;17.67;1.33;;;5.50;99.90;;;;;;5068057;28;20052;-64
2024/01/04 10:24:23;;;;;;;14.45;1.73;;;5.50;99.90;;;;;;5108244;28;20403;-64
2024/01/04 10:26:58;;;;;;;18.45;1.73;;;5.60;99.90;;;;;;5094322;28;20048;-66
2024/01/04 10:29:30;;;;;;;19.67;1.75;;;5.60;99.90;;;;;;5087791;28;20132;-67
2024/01/04 10:32:05;;;;;;;20.05;2.22;;;5.60;99.90;;;;;;5087977;28;20387;-63
2024/01/04 10:34:34;;;;;;;17.75;2.35;;;5.50;99.90;;;;;;5084942;28;20522;-64
2024/01/04 10:37:09;;;;;;;14.30;1.90;;;5.60;99.90;;;;;;5087577;28;20048;-63
2024/01/04 10:39:37;;;;;;;15.73;2.17;;;5.60;99.90;;;;;;5078284;28;20055;-67
2024/01/04 10:42:07;;;;;;;11.68;1.85;;;5.50;99.90;;;;;;5087918;28;20056;-68
2024/01/04 10:44:35;;;;;;;;;;;5.60;99.90;;;;;;5088314;28;20040;-64
2024/01/04 10:47:05;;;;;;;12.57;1.92;;;5.60;99.90;;;;;;5086173;28;19927;-64
2024/01/04 10:49:33;;;;;;;17.25;2.28;;;5.60;99.90;;;;;;5101632;28;20364;-63
2024/01/04 10:52:09;;;;;;;21.02;2.25;;;5.60;99.90;;;;;;5071866;28;20052;-65
2024/01/04 10:54:41;;;;;;;12.88;1.98;;;5.60;99.90;;;;;;5090065;28;20044;-63
2024/01/04 10:57:10;;;;;;;24.55;2.97;;;5.60;99.90;;;;;;5090295;28;20048;-64
2024/01/04 10:59:39;;;;;;;25.80;2.95;;;5.60;99.90;;;;;;5089532;28;20051;-63
2024/01/04 11:02:11;;;;;;;10.27;1.95;;;5.60;99.90;;;;;;5093442;28;20062;-64
2024/01/04 11:04:40;;;;;;;17.98;2.65;;;5.50;99.90;;;;;;5089694;28;20544;-65
2024/01/04 11:07:09;;;;;;;18.25;2.38;;;5.50;99.90;;;;;;5090490;28;20048;-67
2024/01/04 11:09:37;;;;;;;19.67;2.50;;;5.50;99.90;;;;;;5089495;28;20044;-69
2024/01/04 11:12:06;;;;;;;15.52;2.42;;;5.50;99.90;;;;;;5090015;28;20048;-66
2024/01/04 11:14:34;;;;;;;12.50;2.08;;;5.50;99.90;;;;;;5089331;28;20040;-64
2024/01/04 11:17:31;;;;;;;13.60;2.20;;;5.50;99.90;;;;;;5090870;28;20387;-68
2024/01/04 11:20:17;;;;;;;20.00;3.22;;;5.60;99.90;;;;;;5071489;28;20044;-63
2024/01/04 11:22:58;;;;;;;18.77;2.78;;;5.70;99.90;;;;;;5095617;28;20390;-63
2024/01/04 11:26:01;;;;;;;12.80;2.25;;;5.70;99.90;;;;;;5109785;28;20031;-63
2024/01/04 11:28:29;;;;;;;14.32;2.03;;;5.80;99.90;;;;;;5110697;28;20062;-63
2024/01/04 11:31:07;;;;;;;18.05;2.90;;;5.90;99.90;;;;;;5095477;28;20040;-63
2024/01/04 11:33:41;;;;;;;14.80;2.25;;;5.90;99.90;;;;;;5099705;28;20055;-63
2024/01/04 11:36:15;;;;;;;16.55;2.65;;;6.00;99.90;;;;;;5093952;28;20048;-71
2024/01/04 11:38:45;;;;;;;16.80;2.30;;;6.10;99.90;;;;;;5103246;28;20047;-71
2024/01/04 11:41:13;;;;;;;17.90;1.95;;;6.20;99.90;;;;;;5110326;28;20055;-70
2024/01/04 11:43:44;;;;;;;9.18;2.35;;;6.30;99.90;;;;;;5094726;28;20044;-63
2024/01/04 11:46:18;;;;;;;14.90;2.65;;;6.50;99.90;;;;;;5086625;28;20070;-73
2024/01/04 11:48:53;;;;;;;19.73;2.55;;;6.60;99.90;;;;;;5088568;28;20036;-70
2024/01/04 11:51:33;;;;;;;17.08;2.33;;;6.80;99.90;;;;;;5079976;28;20416;-68
2024/01/04 11:54:02;;;;;;;16.40;2.13;;;6.80;99.90;;;;;;5089775;28;20051;-67
2024/01/04 11:56:30;;;;;;;10.57;1.58;;;6.90;99.90;;;;;;5089869;28;20087;-72
2024/01/04 11:59:08;;;;;;;9.73;1.50;;;6.90;99.90;;;;;;5089312;28;20054;-69
2024/01/04 12:01:38;;;;;;;16.45;2.25;;;7.00;99.90;;;;;;5089360;28;20044;-70
2024/01/04 12:04:15;;;;;;;21.70;2.33;;;7.00;99.90;;;;;;5102052;28;20039;-65
2024/01/04 12:06:45;;;;;;;19.92;2.83;;;7.10;99.90;;;;;;5090956;28;20065;-63
2024/01/04 12:09:16;;;;;;;22.13;3.60;;;7.10;99.90;;;;;;5089391;28;20052;-64
2024/01/04 12:11:56;;;;;;;16.00;2.78;;;7.30;99.90;;;;;;5089642;28;20516;-64
2024/01/04 12:14:26;;;;;;;16.70;2.95;;;7.30;99.90;;;;;;5087027;28;20047;-64
2024/01/04 12:16:54;;;;;;;13.13;2.22;;;7.50;99.90;;;;;;5089703;28;20051;-66
2024/01/04 12:19:21;;;;;;;14.10;2.78;;;7.60;99.90;;;;;;5107306;28;20055;-63
2024/01/04 12:21:49;;;;;;;12.98;2.00;;;7.60;99.90;;;;;;5081207;28;20050;-64
2024/01/04 12:24:17;;;;;;;17.40;2.28;;;7.60;99.90;;;;;;5088459;28;20047;-64
2024/01/04 12:26:46;;;;;;;25.27;4.05;;;7.60;99.90;;;;;;5089597;28;20044;-63
2024/01/04 12:29:14;;;;;;;22.10;3.17;;;7.50;99.90;;;;;;5088110;28;20044;-66
2024/01/04 12:31:45;;;;;;;17.42;1.95;;;7.50;99.90;;;;;;5089477;28;20044;-63
2024/01/04 12:34:13;;;;;;;14.35;2.25;;;7.40;99.90;;;;;;5107526;28;20059;-64
2024/01/04 12:36:41;;;;;;;12.63;1.95;;;7.40;99.90;;;;;;5080206;28;20061;-63
2024/01/04 12:39:11;;;;;;;14.35;1.92;;;7.30;99.90;;;;;;5070768;28;20051;-64
2024/01/04 12:41:45;;;;;;;18.80;2.05;;;7.40;99.90;;;;;;5087906;28;20055;-63
2024/01/04 12:44:14;;;;;;;11.00;1.58;;;7.50;99.90;;;;;;5087611;28;20044;-63
2024/01/04 12:46:44;;;;;;;10.70;2.35;;;7.50;99.90;;;;;;5087912;28;20044;-64
2024/01/04 12:49:12;;;;;;;18.73;2.35;;;7.50;99.90;;;;;;5088570;28;20051;-63
2024/01/04 12:51:46;;;;;;;6.78;1.70;;;7.60;99.90;;;;;;5076101;28;20052;-64
2024/01/04 12:54:14;;;;;;;11.38;2.45;;;7.60;99.90;;;;;;5088558;28;20051;-65
2024/01/04 12:56:42;;;;;;;16.48;2.65;;;7.50;99.90;;;;;;5088916;28;20048;-65
2024/01/04 12:59:12;;;;;;;14.18;3.00;;;7.40;99.90;;;;;;5103421;28;20043;-68
2024/01/04 13:01:40;;;;;;;;;;;7.40;99.90;;;;;;5109603;28;20047;-65